Pagrindinis puslapis
METAR-TAF:

METAR-TAF

Oro uostai :

Šiaulių oro uostas

Šiauliai, Lietuva

platuma: 55-53-38N, ilguma: 023-23-42E, Aukštis: 135 m

Dabartinis oras

Ataskaita buvo paskelbta 28 minutes, ne 03:50 UTC
Vėjas 11 kt iš Vakarų
Temperatūra -4°C
Drėgmė 93%
Slėgis 993 hPa
Matomumas 10 km arba daugiau
nėra debesų žemiau 1500 m ir nėra kamuolinių lietaus debesų

METAR: EYSA 010350Z 26011KT CAVOK M04/M05 Q0993 NOSIG

Laikas: 06:18 (04:18 UTC)

Prognozė

Ataskaita buvo paskelbta 2 valandos ir 12 minutes, ne 02:06 UTC
Prognozė galioja nuo 01 metu 03 UTC su 01 metu 12 UTC
Vėjas 10 kt iš Vakarų
Matomumas: 6000 m
Su prošvaistėmis ne aukštis 3000 ft
Laikinai
nuo 01 metu 03 UTC su 01 metu 09 UTC
Matomumas: 3000 m
Išsisklaidę debesys ne aukštis 500 ft
Su prošvaistėmis ne aukštis 2000 ft, Liūtiniai kamuoliniai debesys.
sniegas

TAF: EYSA 010206Z 0103/0112 27010KT 6000 BKN030 TEMPO 0103/0109 3000 SHSN SCT005 BKN020CB

Orai ataskaitas ir orų prognozės (METAR, TAF).

turimą stotys yra geltonos ir raudonos taškus žemėlapyje.

Perkelti pele per norėdami pamatyti stoties vardą.

Tada spustelėkite, norėdami matyti oro stebėjimo ir prognozės.

Norėdami pakeisti žemėlapį: spustelėkite ant žalios mygtukų su juodo kryžiaus žemyn,; žalią mygtuką su brūkšneliu, jei norite nutolinti; arba žalių rodyklių gretimoms žemėlapius.


METAR-TAF: